sensor_id;sensor_type;location;lat;lon;timestamp;P1;durP1;ratioP1;P2;durP2;ratioP2
18740;SDS011;9499;52.472;13.448;2023-07-29T00:01:33;2.60;;;1.90;;
18740;SDS011;9499;52.472;13.448;2023-07-29T00:04:02;3.30;;;3.00;;
18740;SDS011;9499;52.472;13.448;2023-07-29T00:06:30;2.73;;;1.77;;
18740;SDS011;9499;52.472;13.448;2023-07-29T00:08:58;2.77;;;1.50;;
18740;SDS011;9499;52.472;13.448;2023-07-29T00:11:37;2.30;;;2.10;;
18740;SDS011;9499;52.472;13.448;2023-07-29T00:14:06;2.20;;;1.43;;
18740;SDS011;9499;52.472;13.448;2023-07-29T00:16:33;2.83;;;1.57;;
18740;SDS011;9499;52.472;13.448;2023-07-29T00:19:02;2.70;;;1.73;;
18740;SDS011;9499;52.472;13.448;2023-07-29T00:21:29;3.83;;;2.60;;
18740;SDS011;9499;52.472;13.448;2023-07-29T00:24:03;3.00;;;2.70;;
18740;SDS011;9499;52.472;13.448;2023-07-29T00:26:32;3.30;;;1.83;;
18740;SDS011;9499;52.472;13.448;2023-07-29T00:29:02;1.93;;;1.47;;
18740;SDS011;9499;52.472;13.448;2023-07-29T00:31:33;2.30;;;2.07;;
18740;SDS011;9499;52.472;13.448;2023-07-29T00:34:02;2.57;;;2.37;;
18740;SDS011;9499;52.472;13.448;2023-07-29T00:36:31;3.10;;;1.60;;
18740;SDS011;9499;52.472;13.448;2023-07-29T00:38:58;2.50;;;2.10;;
18740;SDS011;9499;52.472;13.448;2023-07-29T00:41:25;3.63;;;2.27;;
18740;SDS011;9499;52.472;13.448;2023-07-29T00:43:53;2.80;;;1.83;;
18740;SDS011;9499;52.472;13.448;2023-07-29T00:46:20;4.00;;;2.60;;
18740;SDS011;9499;52.472;13.448;2023-07-29T00:48:48;2.33;;;2.13;;
18740;SDS011;9499;52.472;13.448;2023-07-29T00:51:17;3.03;;;1.90;;
18740;SDS011;9499;52.472;13.448;2023-07-29T00:53:44;2.10;;;1.57;;
18740;SDS011;9499;52.472;13.448;2023-07-29T00:56:11;3.70;;;2.50;;
18740;SDS011;9499;52.472;13.448;2023-07-29T00:58:42;2.07;;;1.83;;
18740;SDS011;9499;52.472;13.448;2023-07-29T01:01:11;3.97;;;2.50;;
18740;SDS011;9499;52.472;13.448;2023-07-29T01:03:43;2.50;;;1.50;;
18740;SDS011;9499;52.472;13.448;2023-07-29T01:06:13;1.70;;;0.77;;
18740;SDS011;9499;52.472;13.448;2023-07-29T01:08:51;2.00;;;1.47;;
18740;SDS011;9499;52.472;13.448;2023-07-29T01:11:29;3.03;;;1.77;;
18740;SDS011;9499;52.472;13.448;2023-07-29T01:14:07;2.77;;;2.20;;
18740;SDS011;9499;52.472;13.448;2023-07-29T01:16:45;1.50;;;1.30;;
18740;SDS011;9499;52.472;13.448;2023-07-29T01:19:18;1.80;;;1.50;;
18740;SDS011;9499;52.472;13.448;2023-07-29T01:21:59;2.30;;;1.50;;
18740;SDS011;9499;52.472;13.448;2023-07-29T01:24:31;1.73;;;1.60;;
18740;SDS011;9499;52.472;13.448;2023-07-29T01:26:58;3.00;;;1.80;;
18740;SDS011;9499;52.472;13.448;2023-07-29T01:29:29;2.30;;;1.73;;
18740;SDS011;9499;52.472;13.448;2023-07-29T01:31:59;1.73;;;1.40;;
18740;SDS011;9499;52.472;13.448;2023-07-29T01:34:32;3.63;;;2.77;;
18740;SDS011;9499;52.472;13.448;2023-07-29T01:37:14;2.30;;;1.40;;
18740;SDS011;9499;52.472;13.448;2023-07-29T01:39:47;2.60;;;1.83;;
18740;SDS011;9499;52.472;13.448;2023-07-29T01:42:19;2.67;;;2.47;;
18740;SDS011;9499;52.472;13.448;2023-07-29T01:44:48;4.50;;;1.50;;
18740;SDS011;9499;52.472;13.448;2023-07-29T01:47:14;3.00;;;1.73;;
18740;SDS011;9499;52.472;13.448;2023-07-29T01:49:44;2.23;;;1.53;;
18740;SDS011;9499;52.472;13.448;2023-07-29T01:52:11;4.73;;;2.00;;
18740;SDS011;9499;52.472;13.448;2023-07-29T01:54:39;1.90;;;1.33;;
18740;SDS011;9499;52.472;13.448;2023-07-29T01:57:07;3.63;;;3.33;;
18740;SDS011;9499;52.472;13.448;2023-07-29T01:59:34;11.20;;;2.23;;
18740;SDS011;9499;52.472;13.448;2023-07-29T02:02:00;3.10;;;2.10;;
18740;SDS011;9499;52.472;13.448;2023-07-29T02:04:28;2.27;;;1.60;;
18740;SDS011;9499;52.472;13.448;2023-07-29T02:06:56;2.60;;;2.27;;
18740;SDS011;9499;52.472;13.448;2023-07-29T02:09:29;4.53;;;1.97;;
18740;SDS011;9499;52.472;13.448;2023-07-29T02:12:00;2.70;;;1.97;;
18740;SDS011;9499;52.472;13.448;2023-07-29T02:14:31;2.40;;;2.10;;
18740;SDS011;9499;52.472;13.448;2023-07-29T02:16:58;2.40;;;1.60;;
18740;SDS011;9499;52.472;13.448;2023-07-29T02:19:25;4.77;;;2.37;;
18740;SDS011;9499;52.472;13.448;2023-07-29T02:21:56;2.10;;;1.90;;
18740;SDS011;9499;52.472;13.448;2023-07-29T02:24:28;1.80;;;1.60;;
18740;SDS011;9499;52.472;13.448;2023-07-29T02:26:57;2.77;;;1.80;;
18740;SDS011;9499;52.472;13.448;2023-07-29T02:29:25;2.80;;;2.50;;
18740;SDS011;9499;52.472;13.448;2023-07-29T02:31:57;3.70;;;2.50;;
18740;SDS011;9499;52.472;13.448;2023-07-29T02:34:24;2.03;;;1.80;;
18740;SDS011;9499;52.472;13.448;2023-07-29T02:36:52;2.30;;;1.90;;
18740;SDS011;9499;52.472;13.448;2023-07-29T02:39:18;2.83;;;2.37;;
18740;SDS011;9499;52.472;13.448;2023-07-29T02:41:48;5.30;;;2.70;;
18740;SDS011;9499;52.472;13.448;2023-07-29T02:44:15;2.17;;;1.73;;
18740;SDS011;9499;52.472;13.448;2023-07-29T02:46:42;2.17;;;1.80;;
18740;SDS011;9499;52.472;13.448;2023-07-29T02:49:11;2.57;;;1.93;;
18740;SDS011;9499;52.472;13.448;2023-07-29T02:51:38;2.00;;;1.87;;
18740;SDS011;9499;52.472;13.448;2023-07-29T02:54:05;2.27;;;1.77;;
18740;SDS011;9499;52.472;13.448;2023-07-29T02:56:32;2.80;;;2.10;;
18740;SDS011;9499;52.472;13.448;2023-07-29T02:58:59;1.80;;;1.30;;
18740;SDS011;9499;52.472;13.448;2023-07-29T03:01:27;2.50;;;1.80;;
18740;SDS011;9499;52.472;13.448;2023-07-29T03:03:54;3.83;;;2.40;;
18740;SDS011;9499;52.472;13.448;2023-07-29T03:06:23;3.43;;;1.83;;
18740;SDS011;9499;52.472;13.448;2023-07-29T03:08:53;7.93;;;3.03;;
18740;SDS011;9499;52.472;13.448;2023-07-29T03:11:27;2.10;;;1.90;;
18740;SDS011;9499;52.472;13.448;2023-07-29T03:13:56;3.13;;;1.70;;
18740;SDS011;9499;52.472;13.448;2023-07-29T03:16:31;3.33;;;1.93;;
18740;SDS011;9499;52.472;13.448;2023-07-29T03:18:59;2.63;;;1.57;;
18740;SDS011;9499;52.472;13.448;2023-07-29T03:21:30;3.83;;;2.43;;
18740;SDS011;9499;52.472;13.448;2023-07-29T03:23:58;2.53;;;2.03;;
18740;SDS011;9499;52.472;13.448;2023-07-29T03:26:29;2.60;;;2.40;;
18740;SDS011;9499;52.472;13.448;2023-07-29T03:28:56;3.20;;;2.90;;
18740;SDS011;9499;52.472;13.448;2023-07-29T03:31:24;2.03;;;1.80;;
18740;SDS011;9499;52.472;13.448;2023-07-29T03:33:54;2.87;;;2.17;;
18740;SDS011;9499;52.472;13.448;2023-07-29T03:36:21;4.60;;;3.07;;
18740;SDS011;9499;52.472;13.448;2023-07-29T03:38:52;2.77;;;2.13;;
18740;SDS011;9499;52.472;13.448;2023-07-29T03:41:23;2.47;;;2.27;;
18740;SDS011;9499;52.472;13.448;2023-07-29T03:43:50;3.00;;;2.07;;
18740;SDS011;9499;52.472;13.448;2023-07-29T03:46:17;3.20;;;2.40;;
18740;SDS011;9499;52.472;13.448;2023-07-29T03:48:46;4.20;;;2.80;;
18740;SDS011;9499;52.472;13.448;2023-07-29T03:51:17;4.77;;;2.53;;
18740;SDS011;9499;52.472;13.448;2023-07-29T03:53:48;2.50;;;1.50;;
18740;SDS011;9499;52.472;13.448;2023-07-29T03:56:22;4.80;;;3.83;;
18740;SDS011;9499;52.472;13.448;2023-07-29T03:59:01;3.20;;;2.30;;
18740;SDS011;9499;52.472;13.448;2023-07-29T04:01:34;1.70;;;1.57;;
18740;SDS011;9499;52.472;13.448;2023-07-29T04:04:00;2.53;;;2.07;;
18740;SDS011;9499;52.472;13.448;2023-07-29T04:06:27;3.30;;;3.00;;
18740;SDS011;9499;52.472;13.448;2023-07-29T04:08:54;2.80;;;1.80;;
18740;SDS011;9499;52.472;13.448;2023-07-29T04:11:25;2.73;;;2.53;;
18740;SDS011;9499;52.472;13.448;2023-07-29T04:13:54;2.77;;;2.03;;
18740;SDS011;9499;52.472;13.448;2023-07-29T04:16:21;2.23;;;1.97;;
18740;SDS011;9499;52.472;13.448;2023-07-29T04:18:47;2.90;;;1.87;;
18740;SDS011;9499;52.472;13.448;2023-07-29T04:21:17;2.00;;;1.73;;
18740;SDS011;9499;52.472;13.448;2023-07-29T04:23:47;2.67;;;2.27;;
18740;SDS011;9499;52.472;13.448;2023-07-29T04:26:21;2.60;;;1.93;;
18740;SDS011;9499;52.472;13.448;2023-07-29T04:28:50;3.20;;;1.60;;
18740;SDS011;9499;52.472;13.448;2023-07-29T04:31:18;4.43;;;2.50;;
18740;SDS011;9499;52.472;13.448;2023-07-29T04:33:47;2.70;;;1.70;;
18740;SDS011;9499;52.472;13.448;2023-07-29T04:36:16;2.80;;;2.37;;
18740;SDS011;9499;52.472;13.448;2023-07-29T04:38:44;2.50;;;2.03;;
18740;SDS011;9499;52.472;13.448;2023-07-29T04:41:11;4.03;;;2.40;;
18740;SDS011;9499;52.472;13.448;2023-07-29T04:43:40;4.10;;;2.60;;
18740;SDS011;9499;52.472;13.448;2023-07-29T04:46:10;2.93;;;1.97;;
18740;SDS011;9499;52.472;13.448;2023-07-29T04:48:39;3.37;;;2.00;;
18740;SDS011;9499;52.472;13.448;2023-07-29T04:51:23;5.40;;;4.43;;
18740;SDS011;9499;52.472;13.448;2023-07-29T04:53:51;3.13;;;2.83;;
18740;SDS011;9499;52.472;13.448;2023-07-29T04:56:18;3.53;;;2.27;;
18740;SDS011;9499;52.472;13.448;2023-07-29T04:58:45;2.67;;;1.30;;
18740;SDS011;9499;52.472;13.448;2023-07-29T05:01:15;2.63;;;1.73;;
18740;SDS011;9499;52.472;13.448;2023-07-29T05:03:43;1.70;;;1.47;;
18740;SDS011;9499;52.472;13.448;2023-07-29T05:06:09;1.80;;;1.40;;
18740;SDS011;9499;52.472;13.448;2023-07-29T05:08:40;2.23;;;1.83;;
18740;SDS011;9499;52.472;13.448;2023-07-29T05:11:09;8.40;;;3.17;;
18740;SDS011;9499;52.472;13.448;2023-07-29T05:13:39;2.10;;;1.70;;
18740;SDS011;9499;52.472;13.448;2023-07-29T05:16:08;2.60;;;1.73;;
18740;SDS011;9499;52.472;13.448;2023-07-29T05:18:37;3.50;;;2.10;;
18740;SDS011;9499;52.472;13.448;2023-07-29T05:21:04;1.83;;;1.57;;
18740;SDS011;9499;52.472;13.448;2023-07-29T05:23:31;3.60;;;2.30;;
18740;SDS011;9499;52.472;13.448;2023-07-29T05:25:58;2.60;;;2.40;;
18740;SDS011;9499;52.472;13.448;2023-07-29T05:28:25;3.50;;;2.50;;
18740;SDS011;9499;52.472;13.448;2023-07-29T05:30:52;2.77;;;2.27;;
18740;SDS011;9499;52.472;13.448;2023-07-29T05:33:19;3.10;;;1.90;;
18740;SDS011;9499;52.472;13.448;2023-07-29T05:35:48;3.30;;;1.67;;
18740;SDS011;9499;52.472;13.448;2023-07-29T05:38:24;4.50;;;3.80;;
18740;SDS011;9499;52.472;13.448;2023-07-29T05:40:52;3.07;;;2.50;;
18740;SDS011;9499;52.472;13.448;2023-07-29T05:43:19;3.07;;;2.17;;
18740;SDS011;9499;52.472;13.448;2023-07-29T05:45:45;4.30;;;1.93;;
18740;SDS011;9499;52.472;13.448;2023-07-29T05:48:13;2.77;;;1.70;;
18740;SDS011;9499;52.472;13.448;2023-07-29T05:50:39;1.87;;;1.60;;
18740;SDS011;9499;52.472;13.448;2023-07-29T05:53:08;6.20;;;3.20;;
18740;SDS011;9499;52.472;13.448;2023-07-29T05:55:37;1.87;;;1.43;;
18740;SDS011;9499;52.472;13.448;2023-07-29T05:58:05;2.57;;;2.07;;
18740;SDS011;9499;52.472;13.448;2023-07-29T06:00:35;1.70;;;1.40;;
18740;SDS011;9499;52.472;13.448;2023-07-29T06:03:01;2.50;;;1.80;;
18740;SDS011;9499;52.472;13.448;2023-07-29T06:05:33;2.77;;;2.03;;
18740;SDS011;9499;52.472;13.448;2023-07-29T06:07:59;2.40;;;1.93;;
18740;SDS011;9499;52.472;13.448;2023-07-29T06:10:27;1.80;;;1.57;;
18740;SDS011;9499;52.472;13.448;2023-07-29T06:12:54;3.20;;;1.70;;
18740;SDS011;9499;52.472;13.448;2023-07-29T06:15:20;1.50;;;1.20;;
18740;SDS011;9499;52.472;13.448;2023-07-29T06:17:48;2.93;;;1.50;;
18740;SDS011;9499;52.472;13.448;2023-07-29T06:20:15;2.00;;;1.80;;
18740;SDS011;9499;52.472;13.448;2023-07-29T06:22:42;1.37;;;0.90;;
18740;SDS011;9499;52.472;13.448;2023-07-29T06:25:09;1.70;;;1.47;;
18740;SDS011;9499;52.472;13.448;2023-07-29T06:27:37;2.43;;;1.43;;
18740;SDS011;9499;52.472;13.448;2023-07-29T06:30:04;5.43;;;1.93;;
18740;SDS011;9499;52.472;13.448;2023-07-29T06:32:34;2.13;;;1.60;;
18740;SDS011;9499;52.472;13.448;2023-07-29T06:35:01;1.90;;;1.70;;
18740;SDS011;9499;52.472;13.448;2023-07-29T06:37:28;2.50;;;1.73;;
18740;SDS011;9499;52.472;13.448;2023-07-29T06:39:54;1.97;;;1.43;;
18740;SDS011;9499;52.472;13.448;2023-07-29T06:42:21;3.10;;;1.77;;
18740;SDS011;9499;52.472;13.448;2023-07-29T06:44:51;2.03;;;1.37;;
18740;SDS011;9499;52.472;13.448;2023-07-29T06:47:18;3.00;;;1.80;;
18740;SDS011;9499;52.472;13.448;2023-07-29T06:49:45;2.13;;;1.53;;
18740;SDS011;9499;52.472;13.448;2023-07-29T06:52:13;3.53;;;2.90;;
18740;SDS011;9499;52.472;13.448;2023-07-29T06:54:40;2.53;;;1.90;;
18740;SDS011;9499;52.472;13.448;2023-07-29T06:57:06;2.10;;;1.13;;
18740;SDS011;9499;52.472;13.448;2023-07-29T06:59:33;2.80;;;1.17;;
18740;SDS011;9499;52.472;13.448;2023-07-29T07:04:42;1.97;;;1.67;;
18740;SDS011;9499;52.472;13.448;2023-07-29T07:07:09;2.23;;;1.20;;
18740;SDS011;9499;52.472;13.448;2023-07-29T07:09:37;2.13;;;1.53;;
18740;SDS011;9499;52.472;13.448;2023-07-29T07:12:04;1.53;;;1.43;;
18740;SDS011;9499;52.472;13.448;2023-07-29T07:14:31;3.97;;;2.20;;
18740;SDS011;9499;52.472;13.448;2023-07-29T07:17:00;1.97;;;1.23;;
18740;SDS011;9499;52.472;13.448;2023-07-29T07:19:32;1.83;;;1.17;;
18740;SDS011;9499;52.472;13.448;2023-07-29T07:21:59;2.20;;;1.80;;
18740;SDS011;9499;52.472;13.448;2023-07-29T07:24:33;2.00;;;1.63;;
18740;SDS011;9499;52.472;13.448;2023-07-29T07:27:00;1.87;;;1.50;;
18740;SDS011;9499;52.472;13.448;2023-07-29T07:29:28;1.83;;;1.27;;
18740;SDS011;9499;52.472;13.448;2023-07-29T07:31:55;2.27;;;1.30;;
18740;SDS011;9499;52.472;13.448;2023-07-29T07:34:22;1.50;;;1.00;;
18740;SDS011;9499;52.472;13.448;2023-07-29T07:36:52;1.83;;;1.23;;
18740;SDS011;9499;52.472;13.448;2023-07-29T07:39:19;2.33;;;1.30;;
18740;SDS011;9499;52.472;13.448;2023-07-29T07:41:51;1.70;;;1.10;;
18740;SDS011;9499;52.472;13.448;2023-07-29T07:44:18;2.43;;;1.10;;
18740;SDS011;9499;52.472;13.448;2023-07-29T07:46:46;2.20;;;1.73;;
18740;SDS011;9499;52.472;13.448;2023-07-29T07:49:13;1.80;;;1.40;;
18740;SDS011;9499;52.472;13.448;2023-07-29T07:51:43;1.40;;;1.13;;
18740;SDS011;9499;52.472;13.448;2023-07-29T07:54:13;2.07;;;1.57;;
18740;SDS011;9499;52.472;13.448;2023-07-29T07:56:40;1.70;;;1.50;;
18740;SDS011;9499;52.472;13.448;2023-07-29T07:59:09;2.53;;;1.70;;
18740;SDS011;9499;52.472;13.448;2023-07-29T08:01:36;1.87;;;1.37;;
18740;SDS011;9499;52.472;13.448;2023-07-29T08:04:05;1.83;;;1.60;;
18740;SDS011;9499;52.472;13.448;2023-07-29T08:06:35;1.60;;;1.30;;
18740;SDS011;9499;52.472;13.448;2023-07-29T08:09:04;1.43;;;1.23;;
18740;SDS011;9499;52.472;13.448;2023-07-29T08:11:32;1.80;;;1.20;;
18740;SDS011;9499;52.472;13.448;2023-07-29T08:13:58;3.57;;;1.53;;
18740;SDS011;9499;52.472;13.448;2023-07-29T08:16:25;1.70;;;1.10;;
18740;SDS011;9499;52.472;13.448;2023-07-29T08:18:52;2.30;;;2.10;;
18740;SDS011;9499;52.472;13.448;2023-07-29T08:21:19;1.50;;;0.93;;
18740;SDS011;9499;52.472;13.448;2023-07-29T08:23:47;1.70;;;1.30;;
18740;SDS011;9499;52.472;13.448;2023-07-29T08:26:15;1.73;;;1.23;;
18740;SDS011;9499;52.472;13.448;2023-07-29T08:28:44;1.97;;;1.13;;
18740;SDS011;9499;52.472;13.448;2023-07-29T08:31:10;3.90;;;1.23;;
18740;SDS011;9499;52.472;13.448;2023-07-29T08:33:39;2.13;;;1.80;;
18740;SDS011;9499;52.472;13.448;2023-07-29T08:36:06;1.73;;;1.13;;
18740;SDS011;9499;52.472;13.448;2023-07-29T08:38:48;2.67;;;1.67;;
18740;SDS011;9499;52.472;13.448;2023-07-29T08:41:16;2.23;;;1.73;;
18740;SDS011;9499;52.472;13.448;2023-07-29T08:43:59;1.63;;;0.83;;
18740;SDS011;9499;52.472;13.448;2023-07-29T08:46:35;2.23;;;1.60;;
18740;SDS011;9499;52.472;13.448;2023-07-29T08:49:02;1.47;;;1.07;;
18740;SDS011;9499;52.472;13.448;2023-07-29T08:51:29;2.80;;;1.67;;
18740;SDS011;9499;52.472;13.448;2023-07-29T08:53:59;1.50;;;1.00;;
18740;SDS011;9499;52.472;13.448;2023-07-29T08:56:27;1.80;;;1.40;;
18740;SDS011;9499;52.472;13.448;2023-07-29T08:58:56;1.37;;;1.00;;
18740;SDS011;9499;52.472;13.448;2023-07-29T09:01:25;1.50;;;1.00;;
18740;SDS011;9499;52.472;13.448;2023-07-29T09:03:52;2.90;;;1.73;;
18740;SDS011;9499;52.472;13.448;2023-07-29T09:06:18;2.23;;;1.73;;
18740;SDS011;9499;52.472;13.448;2023-07-29T09:08:46;2.07;;;0.97;;
18740;SDS011;9499;52.472;13.448;2023-07-29T09:11:15;1.67;;;1.13;;
18740;SDS011;9499;52.472;13.448;2023-07-29T09:13:42;2.47;;;1.70;;
18740;SDS011;9499;52.472;13.448;2023-07-29T09:16:11;1.57;;;1.10;;
18740;SDS011;9499;52.472;13.448;2023-07-29T09:18:40;1.73;;;0.90;;
18740;SDS011;9499;52.472;13.448;2023-07-29T09:21:07;1.63;;;1.10;;
18740;SDS011;9499;52.472;13.448;2023-07-29T09:23:39;2.97;;;1.40;;
18740;SDS011;9499;52.472;13.448;2023-07-29T09:26:06;2.50;;;1.30;;
18740;SDS011;9499;52.472;13.448;2023-07-29T09:28:33;1.40;;;0.80;;
18740;SDS011;9499;52.472;13.448;2023-07-29T09:31:15;2.10;;;1.20;;
18740;SDS011;9499;52.472;13.448;2023-07-29T09:33:46;1.70;;;1.10;;
18740;SDS011;9499;52.472;13.448;2023-07-29T09:36:13;1.63;;;1.10;;
18740;SDS011;9499;52.472;13.448;2023-07-29T09:38:40;1.57;;;1.03;;
18740;SDS011;9499;52.472;13.448;2023-07-29T09:41:07;1.77;;;0.70;;
18740;SDS011;9499;52.472;13.448;2023-07-29T09:43:40;1.83;;;1.00;;
18740;SDS011;9499;52.472;13.448;2023-07-29T09:46:08;1.73;;;0.80;;
18740;SDS011;9499;52.472;13.448;2023-07-29T09:48:40;2.40;;;1.20;;
18740;SDS011;9499;52.472;13.448;2023-07-29T09:51:10;1.70;;;1.13;;
18740;SDS011;9499;52.472;13.448;2023-07-29T09:53:41;1.87;;;1.13;;
18740;SDS011;9499;52.472;13.448;2023-07-29T09:56:09;1.57;;;1.10;;
18740;SDS011;9499;52.472;13.448;2023-07-29T09:58:38;1.10;;;0.60;;
18740;SDS011;9499;52.472;13.448;2023-07-29T10:01:05;2.80;;;1.57;;
18740;SDS011;9499;52.472;13.448;2023-07-29T10:03:33;2.70;;;1.17;;
18740;SDS011;9499;52.472;13.448;2023-07-29T10:06:01;1.50;;;0.73;;
18740;SDS011;9499;52.472;13.448;2023-07-29T10:08:29;1.57;;;0.87;;
18740;SDS011;9499;52.472;13.448;2023-07-29T10:10:56;1.77;;;1.00;;
18740;SDS011;9499;52.472;13.448;2023-07-29T10:13:26;1.50;;;1.00;;
18740;SDS011;9499;52.472;13.448;2023-07-29T10:15:53;1.40;;;0.80;;
18740;SDS011;9499;52.472;13.448;2023-07-29T10:18:20;1.73;;;1.07;;
18740;SDS011;9499;52.472;13.448;2023-07-29T10:20:50;1.20;;;0.73;;
18740;SDS011;9499;52.472;13.448;2023-07-29T10:23:21;1.40;;;0.73;;
18740;SDS011;9499;52.472;13.448;2023-07-29T10:25:49;1.50;;;1.07;;
18740;SDS011;9499;52.472;13.448;2023-07-29T10:28:21;1.80;;;0.67;;
18740;SDS011;9499;52.472;13.448;2023-07-29T10:30:51;1.50;;;0.60;;
18740;SDS011;9499;52.472;13.448;2023-07-29T10:33:18;1.40;;;0.80;;
18740;SDS011;9499;52.472;13.448;2023-07-29T10:35:48;1.10;;;0.50;;
18740;SDS011;9499;52.472;13.448;2023-07-29T10:38:15;1.53;;;1.00;;
18740;SDS011;9499;52.472;13.448;2023-07-29T10:40:45;1.20;;;0.57;;
18740;SDS011;9499;52.472;13.448;2023-07-29T10:43:18;1.50;;;0.80;;
18740;SDS011;9499;52.472;13.448;2023-07-29T10:45:49;1.83;;;0.93;;
18740;SDS011;9499;52.472;13.448;2023-07-29T10:51:24;1.70;;;0.97;;
18740;SDS011;9499;52.472;13.448;2023-07-29T10:53:54;3.87;;;0.77;;
18740;SDS011;9499;52.472;13.448;2023-07-29T10:56:30;1.10;;;0.53;;
18740;SDS011;9499;52.472;13.448;2023-07-29T10:59:02;1.50;;;0.70;;
18740;SDS011;9499;52.472;13.448;2023-07-29T11:01:58;1.37;;;0.50;;
18740;SDS011;9499;52.472;13.448;2023-07-29T11:04:26;1.10;;;0.50;;
18740;SDS011;9499;52.472;13.448;2023-07-29T11:07:01;1.13;;;0.53;;
18740;SDS011;9499;52.472;13.448;2023-07-29T11:09:51;1.47;;;0.80;;
18740;SDS011;9499;52.472;13.448;2023-07-29T11:12:39;2.00;;;1.10;;
18740;SDS011;9499;52.472;13.448;2023-07-29T11:15:15;1.30;;;0.60;;
18740;SDS011;9499;52.472;13.448;2023-07-29T11:17:45;1.57;;;0.93;;
18740;SDS011;9499;52.472;13.448;2023-07-29T11:20:15;1.57;;;0.70;;
18740;SDS011;9499;52.472;13.448;2023-07-29T11:22:43;1.33;;;0.90;;
18740;SDS011;9499;52.472;13.448;2023-07-29T11:25:10;1.00;;;0.50;;
18740;SDS011;9499;52.472;13.448;2023-07-29T11:27:39;0.90;;;0.30;;
18740;SDS011;9499;52.472;13.448;2023-07-29T11:30:08;0.93;;;0.33;;
18740;SDS011;9499;52.472;13.448;2023-07-29T11:32:36;1.10;;;0.40;;
18740;SDS011;9499;52.472;13.448;2023-07-29T11:35:04;0.90;;;0.30;;
18740;SDS011;9499;52.472;13.448;2023-07-29T11:37:32;0.90;;;0.27;;
18740;SDS011;9499;52.472;13.448;2023-07-29T11:39:59;1.20;;;0.40;;
18740;SDS011;9499;52.472;13.448;2023-07-29T11:42:27;1.30;;;0.53;;
18740;SDS011;9499;52.472;13.448;2023-07-29T11:44:57;0.90;;;0.33;;
18740;SDS011;9499;52.472;13.448;2023-07-29T11:47:24;1.30;;;0.70;;
18740;SDS011;9499;52.472;13.448;2023-07-29T11:49:50;1.20;;;0.40;;
18740;SDS011;9499;52.472;13.448;2023-07-29T11:52:17;1.00;;;0.60;;
18740;SDS011;9499;52.472;13.448;2023-07-29T11:54:45;1.07;;;0.53;;
18740;SDS011;9499;52.472;13.448;2023-07-29T11:57:13;1.20;;;0.60;;
18740;SDS011;9499;52.472;13.448;2023-07-29T11:59:40;1.30;;;0.87;;
18740;SDS011;9499;52.472;13.448;2023-07-29T12:02:11;1.87;;;1.30;;
18740;SDS011;9499;52.472;13.448;2023-07-29T12:04:39;1.63;;;0.80;;
18740;SDS011;9499;52.472;13.448;2023-07-29T12:07:07;1.77;;;0.90;;
18740;SDS011;9499;52.472;13.448;2023-07-29T12:09:34;0.90;;;0.30;;
18740;SDS011;9499;52.472;13.448;2023-07-29T12:12:01;1.10;;;0.50;;
18740;SDS011;9499;52.472;13.448;2023-07-29T12:14:30;2.90;;;1.27;;
18740;SDS011;9499;52.472;13.448;2023-07-29T12:16:59;1.00;;;0.50;;
18740;SDS011;9499;52.472;13.448;2023-07-29T12:19:32;1.43;;;0.83;;
18740;SDS011;9499;52.472;13.448;2023-07-29T12:22:00;1.50;;;0.63;;
18740;SDS011;9499;52.472;13.448;2023-07-29T12:24:26;1.20;;;0.93;;
18740;SDS011;9499;52.472;13.448;2023-07-29T12:26:55;1.60;;;1.10;;
18740;SDS011;9499;52.472;13.448;2023-07-29T12:29:22;1.50;;;1.00;;
18740;SDS011;9499;52.472;13.448;2023-07-29T12:31:49;1.40;;;0.73;;
18740;SDS011;9499;52.472;13.448;2023-07-29T12:34:24;1.20;;;0.70;;
18740;SDS011;9499;52.472;13.448;2023-07-29T12:36:53;1.50;;;0.70;;
18740;SDS011;9499;52.472;13.448;2023-07-29T12:39:21;1.40;;;0.70;;
18740;SDS011;9499;52.472;13.448;2023-07-29T12:41:52;1.97;;;0.80;;
18740;SDS011;9499;52.472;13.448;2023-07-29T12:44:23;1.20;;;0.60;;
18740;SDS011;9499;52.472;13.448;2023-07-29T12:46:50;1.20;;;0.60;;
18740;SDS011;9499;52.472;13.448;2023-07-29T12:49:19;1.00;;;0.60;;
18740;SDS011;9499;52.472;13.448;2023-07-29T12:51:45;1.97;;;0.83;;
18740;SDS011;9499;52.472;13.448;2023-07-29T12:54:14;1.17;;;0.63;;
18740;SDS011;9499;52.472;13.448;2023-07-29T12:56:40;1.30;;;1.00;;
18740;SDS011;9499;52.472;13.448;2023-07-29T12:59:07;1.53;;;1.13;;
18740;SDS011;9499;52.472;13.448;2023-07-29T13:01:37;2.40;;;1.33;;
18740;SDS011;9499;52.472;13.448;2023-07-29T13:04:04;1.97;;;1.77;;
18740;SDS011;9499;52.472;13.448;2023-07-29T13:06:30;4.77;;;1.40;;
18740;SDS011;9499;52.472;13.448;2023-07-29T13:08:57;1.90;;;1.37;;
18740;SDS011;9499;52.472;13.448;2023-07-29T13:11:25;1.43;;;0.83;;
18740;SDS011;9499;52.472;13.448;2023-07-29T13:13:52;2.70;;;1.53;;
18740;SDS011;9499;52.472;13.448;2023-07-29T13:16:18;1.87;;;1.00;;
18740;SDS011;9499;52.472;13.448;2023-07-29T13:18:46;1.53;;;0.87;;
18740;SDS011;9499;52.472;13.448;2023-07-29T13:21:13;1.30;;;1.00;;
18740;SDS011;9499;52.472;13.448;2023-07-29T13:23:41;1.30;;;0.90;;
18740;SDS011;9499;52.472;13.448;2023-07-29T13:26:08;3.67;;;0.77;;
18740;SDS011;9499;52.472;13.448;2023-07-29T13:28:37;1.80;;;1.70;;
18740;SDS011;9499;52.472;13.448;2023-07-29T13:31:03;2.00;;;1.40;;
18740;SDS011;9499;52.472;13.448;2023-07-29T13:33:30;2.03;;;1.27;;
18740;SDS011;9499;52.472;13.448;2023-07-29T13:35:59;1.53;;;1.03;;
18740;SDS011;9499;52.472;13.448;2023-07-29T13:38:25;4.70;;;1.37;;
18740;SDS011;9499;52.472;13.448;2023-07-29T13:40:52;1.23;;;0.83;;
18740;SDS011;9499;52.472;13.448;2023-07-29T13:43:18;2.17;;;1.50;;
18740;SDS011;9499;52.472;13.448;2023-07-29T13:45:46;1.40;;;1.10;;
18740;SDS011;9499;52.472;13.448;2023-07-29T13:48:15;1.40;;;1.20;;
18740;SDS011;9499;52.472;13.448;2023-07-29T13:50:42;1.87;;;1.20;;
18740;SDS011;9499;52.472;13.448;2023-07-29T13:53:09;1.80;;;1.30;;
18740;SDS011;9499;52.472;13.448;2023-07-29T13:55:39;1.73;;;1.00;;
18740;SDS011;9499;52.472;13.448;2023-07-29T13:58:05;1.80;;;0.90;;
18740;SDS011;9499;52.472;13.448;2023-07-29T14:00:33;1.37;;;0.63;;
18740;SDS011;9499;52.472;13.448;2023-07-29T14:03:01;1.37;;;0.80;;
18740;SDS011;9499;52.472;13.448;2023-07-29T14:05:29;1.40;;;0.70;;
18740;SDS011;9499;52.472;13.448;2023-07-29T14:07:55;1.20;;;0.70;;
18740;SDS011;9499;52.472;13.448;2023-07-29T14:10:22;2.13;;;0.80;;
18740;SDS011;9499;52.472;13.448;2023-07-29T14:12:48;2.03;;;1.23;;
18740;SDS011;9499;52.472;13.448;2023-07-29T14:15:15;1.50;;;1.00;;
18740;SDS011;9499;52.472;13.448;2023-07-29T14:17:42;1.40;;;0.60;;
18740;SDS011;9499;52.472;13.448;2023-07-29T14:20:11;1.40;;;0.63;;
18740;SDS011;9499;52.472;13.448;2023-07-29T14:22:37;1.30;;;0.63;;
18740;SDS011;9499;52.472;13.448;2023-07-29T14:25:04;1.17;;;0.63;;
18740;SDS011;9499;52.472;13.448;2023-07-29T14:27:32;1.00;;;0.50;;
18740;SDS011;9499;52.472;13.448;2023-07-29T14:29:58;1.20;;;0.50;;
18740;SDS011;9499;52.472;13.448;2023-07-29T14:32:25;1.33;;;0.70;;
18740;SDS011;9499;52.472;13.448;2023-07-29T14:34:52;1.30;;;0.60;;
18740;SDS011;9499;52.472;13.448;2023-07-29T14:37:20;1.00;;;0.50;;
18740;SDS011;9499;52.472;13.448;2023-07-29T14:39:46;1.07;;;0.50;;
18740;SDS011;9499;52.472;13.448;2023-07-29T14:42:13;1.10;;;0.50;;
18740;SDS011;9499;52.472;13.448;2023-07-29T14:44:40;1.10;;;0.40;;
18740;SDS011;9499;52.472;13.448;2023-07-29T14:47:07;3.23;;;0.60;;
18740;SDS011;9499;52.472;13.448;2023-07-29T14:49:34;1.17;;;0.63;;
18740;SDS011;9499;52.472;13.448;2023-07-29T14:52:00;1.00;;;0.47;;
18740;SDS011;9499;52.472;13.448;2023-07-29T14:54:28;1.57;;;0.50;;
18740;SDS011;9499;52.472;13.448;2023-07-29T14:56:54;1.43;;;0.90;;
18740;SDS011;9499;52.472;13.448;2023-07-29T14:59:22;1.23;;;0.63;;
18740;SDS011;9499;52.472;13.448;2023-07-29T15:01:49;3.20;;;1.00;;
18740;SDS011;9499;52.472;13.448;2023-07-29T15:04:15;1.93;;;0.60;;